Abis Cuxhaven — PBYB — position and weather

sailwx.info

Track history (hours):
 
Tides and Currents Weather Stations Pressure Air Temp Water Temp Dewpoint Dewpoint Depression Visibility Wind Speed Wind Dir Waves Ship Positions

Abis Cuxhaven

Last reported at 2016-Aug-29 03:33 UTC. Time now 2016-Aug-29 03:38 UTC.
Position N 51°56' E 004°13'.

Length 114 m; draft 6 m.

Type: Cargo ship. MMSI: 246670000.

Date/timePositionNaut miles runAvg speedWind from/ knotsBaromVisibWave heightAir tempDewpointWater temp
2016-Aug-29 03:33N 51°56' E 004°13'9 8.7
2016-Aug-29 02:34N 51°53' E 004°27'0 0.1
2016-Aug-29 01:31N 51°53' E 004°26'0 0.0
2016-Aug-29 00:31N 51°53' E 004°27'0 0.0
2016-Aug-28 23:31N 51°53' E 004°26'0 0.0
2016-Aug-28 22:31N 51°53' E 004°27'0 0.0
2016-Aug-28 21:31N 51°53' E 004°27'0 0.0
2016-Aug-28 20:31N 51°53' E 004°27'0 0.0
2016-Aug-28 19:32N 51°53' E 004°27'0 0.0
2016-Aug-28 18:32N 51°53' E 004°27'0 0.0
2016-Aug-28 17:31N 51°53' E 004°27'0 0.0
2016-Aug-28 16:32N 51°53' E 004°27'0 0.0
2016-Aug-28 15:31N 51°53' E 004°27'0 0.0
2016-Aug-28 14:31N 51°53' E 004°27'0 0.0
2016-Aug-28 13:32N 51°53' E 004°27'0 0.0
2016-Aug-28 12:32N 51°53' E 004°27'0 0.0
2016-Aug-28 11:32N 51°53' E 004°27'0 0.0
2016-Aug-28 10:32N 51°53' E 004°27'0 0.0
2016-Aug-28 09:32N 51°53' E 004°27'0 0.0
2016-Aug-28 08:32N 51°53' E 004°27'0 0.0
2016-Aug-28 07:31N 51°53' E 004°27'0 0.0
2016-Aug-28 06:32N 51°53' E 004°27'0 0.0
2016-Aug-28 05:31N 51°53' E 004°27'0 0.0
2016-Aug-28 04:32N 51°53' E 004°27'0 0.0
2016-Aug-28 03:31N 51°53' E 004°27'0 0.0
2016-Aug-28 02:32N 51°53' E 004°27'0 0.0
2016-Aug-28 01:31N 51°53' E 004°27'0 0.0
2016-Aug-28 00:32N 51°53' E 004°27'0 0.0
2016-Aug-27 23:32N 51°53' E 004°27'0 0.0
2016-Aug-27 22:32N 51°53' E 004°27'0 0.0
2016-Aug-27 21:31N 51°53' E 004°27'0 0.0
2016-Aug-27 20:29N 51°53' E 004°27'0 0.0
2016-Aug-27 19:31N 51°53' E 004°27'0 0.0
2016-Aug-27 18:32N 51°53' E 004°27'0 0.0
2016-Aug-27 17:31N 51°53' E 004°27'0 0.0
2016-Aug-27 16:28N 51°53' E 004°27'0 0.0
2016-Aug-27 15:32N 51°53' E 004°27'0 0.0
2016-Aug-27 14:31N 51°53' E 004°27'0 0.0
2016-Aug-27 13:31N 51°53' E 004°27'0 0.0
2016-Aug-27 12:31N 51°53' E 004°27'0 0.0
2016-Aug-27 11:32N 51°53' E 004°26'1 1.1
2016-Aug-27 10:33N 51°54' E 004°27'1 0.6
2016-Aug-27 09:33N 51°54' E 004°28'0 0.0
2016-Aug-27 08:33N 51°54' E 004°28'0 0.0
2016-Aug-27 07:33N 51°54' E 004°28'0 0.0
2016-Aug-27 06:33N 51°54' E 004°28'0 0.0
2016-Aug-27 04:33N 51°54' E 004°28'0 0.0
2016-Aug-27 03:33N 51°54' E 004°28'0 0.0
2016-Aug-27 02:33N 51°54' E 004°28'4 4.0
2016-Aug-27 01:34N 51°54' E 004°21'10 9.6
2016-Aug-27 00:34N 51°58' E 004°07'1010.5
2016-Aug-26 23:34N 52°02' E 003°52'9 8.8
2016-Aug-26 22:33N 52°10' E 003°46'8 8.5
2016-Aug-26 21:34N 52°19' E 003°48'6 6.2
2016-Aug-26 20:34N 52°25' E 003°50'6 6.3
2016-Aug-26 19:34N 52°31' E 003°51'7 6.6
2016-Aug-26 18:34N 52°38' E 003°53'7 7.3
2016-Aug-26 17:33N 52°45' E 003°55'8 7.7
2016-Aug-26 16:34N 52°52' E 003°58'8 7.8
2016-Aug-26 15:33N 52°59' E 004°04'9 8.8
2016-Aug-26 14:33N 53°05' E 004°15'8 8.3
2016-Aug-26 13:34N 53°10' E 004°25'8 8.2
2016-Aug-26 12:33N 53°18' E 004°31'16 7.9
2016-Aug-26 10:29N 53°30' E 004°48'8 8.5
2016-Aug-26 09:33N 53°33' E 005°01'10 9.6
2016-Aug-26 08:33N 53°37' E 005°16'1010.2
2016-Aug-26 07:34N 53°40' E 005°32'1010.2
2016-Aug-26 06:34N 53°42' E 005°49'17 8.6
2016-Aug-26 04:32N 53°36' E 006°16'0 0.0
2016-Aug-26 03:33N 53°36' E 006°16'0 0.0
2016-Aug-26 02:33N 53°36' E 006°16'0 0.0
2016-Aug-26 01:33N 53°36' E 006°16'0 0.0
2016-Aug-26 00:30N 53°36' E 006°16'0 0.0
2016-Aug-25 23:33N 53°36' E 006°16'0 0.0
2016-Aug-25 22:30N 53°36' E 006°16'0 0.1
2016-Aug-25 21:24N 53°36' E 006°16'0 0.0
2016-Aug-25 20:30N 53°36' E 006°16'0 0.0
2016-Aug-25 19:33N 53°36' E 006°16'0 0.0
2016-Aug-25 18:33N 53°36' E 006°16'0 0.0
2016-Aug-25 17:33N 53°36' E 006°16'0 0.0
2016-Aug-25 16:30N 53°36' E 006°16'0 0.1
2016-Aug-25 15:30N 53°36' E 006°16'7 7.3
2016-Aug-25 14:33N 53°37' E 006°28'1111.0
2016-Aug-25 13:33N 53°32' E 006°44'1110.7
2016-Aug-25 12:33N 53°24' E 006°57'8 8.0
2016-Aug-25 11:33N 53°20' E 007°08'2 2.1
2016-Aug-25 10:33N 53°20' E 007°12'0 0.1
2016-Aug-25 09:29N 53°20' E 007°12'0 0.0
2016-Aug-25 08:32N 53°20' E 007°12'0 0.0
2016-Aug-25 07:32N 53°20' E 007°12'0 0.0
2016-Aug-25 06:32N 53°20' E 007°12'0 0.0
2016-Aug-25 04:29N 53°20' E 007°12'0 0.0
2016-Aug-25 03:29N 53°20' E 007°12'0 0.0
2016-Aug-25 02:32N 53°20' E 007°12'0 0.0
2016-Aug-25 01:32N 53°20' E 007°12'0 0.0
2016-Aug-25 00:32N 53°20' E 007°12'0 0.0
2016-Aug-24 23:29N 53°20' E 007°12'0 0.0
2016-Aug-24 22:32N 53°20' E 007°12'0 0.0
2016-Aug-24 21:32N 53°20' E 007°12'0 0.0
2016-Aug-24 20:32N 53°20' E 007°12'0 0.0
2016-Aug-24 19:32N 53°20' E 007°12'0 0.0
2016-Aug-24 18:32N 53°20' E 007°12'0 0.0
2016-Aug-24 17:32N 53°20' E 007°12'0 0.0
2016-Aug-24 16:17N 53°20' E 007°12'0 0.0
2016-Aug-24 15:29N 53°20' E 007°12'0 0.0
2016-Aug-24 14:32N 53°20' E 007°12'0 0.0
2016-Aug-24 13:29N 53°20' E 007°12'0 0.0
2016-Aug-24 12:26N 53°20' E 007°12'0 0.0
2016-Aug-24 11:32N 53°20' E 007°12'0 0.0
2016-Aug-24 10:29N 53°20' E 007°12'0 0.0
2016-Aug-24 09:32N 53°20' E 007°12'0 0.0
2016-Aug-24 08:32N 53°20' E 007°12'0 0.0
2016-Aug-24 07:32N 53°20' E 007°12'0 0.0
2016-Aug-24 06:32N 53°20' E 007°12'0 0.0
2016-Aug-24 04:32N 53°20' E 007°12'0 0.0
2016-Aug-24 03:29N 53°20' E 007°12'0 0.0
2016-Aug-24 02:32N 53°20' E 007°12'0 0.0
2016-Aug-24 01:32N 53°20' E 007°12'0 0.0
2016-Aug-24 00:32N 53°20' E 007°12'0 0.0
2016-Aug-23 23:29N 53°20' E 007°12'0 0.0
2016-Aug-23 22:32N 53°20' E 007°12'0 0.0
2016-Aug-23 21:29N 53°20' E 007°12'0 0.0
2016-Aug-23 20:29N 53°20' E 007°12'0 0.0
2016-Aug-23 19:29N 53°20' E 007°12'0 0.0
2016-Aug-23 18:29N 53°20' E 007°12'0 0.0
2016-Aug-23 17:29N 53°20' E 007°12'0 0.0
2016-Aug-23 16:29N 53°20' E 007°12'0 0.0
2016-Aug-23 15:29N 53°20' E 007°12'0 0.0
2016-Aug-23 14:29N 53°20' E 007°12'0 0.3
2016-Aug-23 13:33N 53°20' E 007°12'3 2.9
2016-Aug-23 12:33N 53°20' E 007°07'1010.3
2016-Aug-23 11:33N 53°27' E 006°54'1514.7
2016-Aug-23 10:33N 53°36' E 006°35'1111.3
2016-Aug-23 09:33N 53°37' E 006°16'1 1.0
2016-Aug-23 08:33N 53°36' E 006°16'9 9.3
2016-Aug-23 07:33N 53°38' E 006°01'9 9.2
2016-Aug-23 06:33N 53°37' E 005°46'8 8.1
2016-Aug-23 05:33N 53°35' E 005°32'8 8.5
2016-Aug-23 04:33N 53°32' E 005°19'9 8.8
2016-Aug-23 03:33N 53°29' E 005°05'9 9.1
2016-Aug-23 02:31N 53°25' E 004°50'1410.2
2016-Aug-23 01:07N 53°14' E 004°35'1011.0
2016-Aug-23 00:13N 53°05' E 004°27'710.9
2016-Aug-22 23:33N 52°59' E 004°22'1110.6
2016-Aug-22 22:33N 52°50' E 004°12'1110.9
2016-Aug-22 21:33N 52°42' E 004°00'1111.4
2016-Aug-22 20:33N 52°34' E 003°48'1212.3
2016-Aug-22 19:34N 52°25' E 003°34'1212.2
2016-Aug-22 18:33N 52°16' E 003°20'1312.9
2016-Aug-22 17:33N 52°06' E 003°06'1413.8
2016-Aug-22 16:33N 51°55' E 002°52'1414.1
2016-Aug-22 15:32N 51°44' E 002°37'1313.7
2016-Aug-22 14:33N 51°34' E 002°23'1413.7
2016-Aug-22 13:34N 51°23' E 002°11'1312.7
2016-Aug-22 12:33N 51°12' E 001°59'1110.8
2016-Aug-22 11:33N 51°05' E 001°46'10 9.5
2016-Aug-22 10:33N 50°58' E 001°36'9 8.6
2016-Aug-22 09:33N 50°51' E 001°27'10 9.2
2016-Aug-22 08:30N 50°43' E 001°20'9 9.5
2016-Aug-22 07:33N 50°37' E 001°08'10 9.7
2016-Aug-22 06:31N 50°32' E 000°55'1010.0
2016-Aug-22 05:33N 50°29' E 000°41'10 9.8
2016-Aug-22 04:31N 50°26' E 000°26'9 9.8
2016-Aug-22 03:32N 50°23' E 000°11'1010.1
2016-Aug-22 02:33N 50°21' W 000°04'1110.7
2016-Aug-22 01:33N 50°18' W 000°20'1311.9
2016-Aug-22 00:30N 50°14' W 000°38'1713.6
2016-Aug-21 23:13N 50°08' W 001°04'1214.6
2016-Aug-21 22:26N 50°05' W 001°21'1415.0
2016-Aug-21 21:29N 50°01' W 001°42'3313.9
2016-Aug-21 19:08N 49°52' W 002°31'911.7
2016-Aug-21 18:23N 49°49' W 002°44'1211.0
2016-Aug-21 17:17N 49°43' W 003°00'810.4
2016-Aug-21 16:31N 49°40' W 003°11'1210.0
2016-Aug-21 15:19N 49°34' W 003°28'10 9.4
2016-Aug-21 14:14N 49°29' W 003°41'57 9.9
2016-Aug-21 08:29N 48°60' W 004°56'1212.1
2016-Aug-21 07:31N 48°54' W 005°12'1212.3
2016-Aug-21 06:33N 48°48' W 005°27'  
Track history (hours):
 
Tides and Currents Weather Stations Pressure Air Temp Water Temp Dewpoint Dewpoint Depression Visibility Wind Speed Wind Dir Waves Ship Positions

Abis Cuxhaven

Last reported at 2016-Aug-29 03:33 UTC. Time now 2016-Aug-29 03:38 UTC.
Position N 51°56' E 004°13'.

Length 114 m; draft 6 m.

Type: Cargo ship. MMSI: 246670000.

Date/timePositionNaut miles runAvg speedWind from/ knotsBaromVisibWave heightAir tempDewpointWater temp
2016-Aug-29 03:33N 51°56' E 004°13'9 8.7
2016-Aug-29 02:34N 51°53' E 004°27'0 0.1
2016-Aug-29 01:31N 51°53' E 004°26'0 0.0
2016-Aug-29 00:31N 51°53' E 004°27'0 0.0
2016-Aug-28 23:31N 51°53' E 004°26'0 0.0
2016-Aug-28 22:31N 51°53' E 004°27'0 0.0
2016-Aug-28 21:31N 51°53' E 004°27'0 0.0
2016-Aug-28 20:31N 51°53' E 004°27'0 0.0
2016-Aug-28 19:32N 51°53' E 004°27'0 0.0
2016-Aug-28 18:32N 51°53' E 004°27'0 0.0
2016-Aug-28 17:31N 51°53' E 004°27'0 0.0
2016-Aug-28 16:32N 51°53' E 004°27'0 0.0
2016-Aug-28 15:31N 51°53' E 004°27'0 0.0
2016-Aug-28 14:31N 51°53' E 004°27'0 0.0
2016-Aug-28 13:32N 51°53' E 004°27'0 0.0
2016-Aug-28 12:32N 51°53' E 004°27'0 0.0
2016-Aug-28 11:32N 51°53' E 004°27'0 0.0
2016-Aug-28 10:32N 51°53' E 004°27'0 0.0
2016-Aug-28 09:32N 51°53' E 004°27'0 0.0
2016-Aug-28 08:32N 51°53' E 004°27'0 0.0
2016-Aug-28 07:31N 51°53' E 004°27'0 0.0
2016-Aug-28 06:32N 51°53' E 004°27'0 0.0
2016-Aug-28 05:31N 51°53' E 004°27'0 0.0
2016-Aug-28 04:32N 51°53' E 004°27'0 0.0
2016-Aug-28 03:31N 51°53' E 004°27'0 0.0
2016-Aug-28 02:32N 51°53' E 004°27'0 0.0
2016-Aug-28 01:31N 51°53' E 004°27'0 0.0
2016-Aug-28 00:32N 51°53' E 004°27'0 0.0
2016-Aug-27 23:32N 51°53' E 004°27'0 0.0
2016-Aug-27 22:32N 51°53' E 004°27'0 0.0
2016-Aug-27 21:31N 51°53' E 004°27'0 0.0
2016-Aug-27 20:29N 51°53' E 004°27'0 0.0
2016-Aug-27 19:31N 51°53' E 004°27'0 0.0
2016-Aug-27 18:32N 51°53' E 004°27'0 0.0
2016-Aug-27 17:31N 51°53' E 004°27'0 0.0
2016-Aug-27 16:28N 51°53' E 004°27'0 0.0
2016-Aug-27 15:32N 51°53' E 004°27'0 0.0
2016-Aug-27 14:31N 51°53' E 004°27'0 0.0
2016-Aug-27 13:31N 51°53' E 004°27'0 0.0
2016-Aug-27 12:31N 51°53' E 004°27'0 0.0
2016-Aug-27 11:32N 51°53' E 004°26'1 1.1
2016-Aug-27 10:33N 51°54' E 004°27'1 0.6
2016-Aug-27 09:33N 51°54' E 004°28'0 0.0
2016-Aug-27 08:33N 51°54' E 004°28'0 0.0
2016-Aug-27 07:33N 51°54' E 004°28'0 0.0
2016-Aug-27 06:33N 51°54' E 004°28'0 0.0
2016-Aug-27 04:33N 51°54' E 004°28'0 0.0
2016-Aug-27 03:33N 51°54' E 004°28'0 0.0
2016-Aug-27 02:33N 51°54' E 004°28'4 4.0
2016-Aug-27 01:34N 51°54' E 004°21'10 9.6
2016-Aug-27 00:34N 51°58' E 004°07'1010.5
2016-Aug-26 23:34N 52°02' E 003°52'9 8.8
2016-Aug-26 22:33N 52°10' E 003°46'8 8.5
2016-Aug-26 21:34N 52°19' E 003°48'6 6.2
2016-Aug-26 20:34N 52°25' E 003°50'6 6.3
2016-Aug-26 19:34N 52°31' E 003°51'7 6.6
2016-Aug-26 18:34N 52°38' E 003°53'7 7.3
2016-Aug-26 17:33N 52°45' E 003°55'8 7.7
2016-Aug-26 16:34N 52°52' E 003°58'8 7.8
2016-Aug-26 15:33N 52°59' E 004°04'9 8.8
2016-Aug-26 14:33N 53°05' E 004°15'8 8.3
2016-Aug-26 13:34N 53°10' E 004°25'8 8.2
2016-Aug-26 12:33N 53°18' E 004°31'16 7.9
2016-Aug-26 10:29N 53°30' E 004°48'8 8.5
2016-Aug-26 09:33N 53°33' E 005°01'10 9.6
2016-Aug-26 08:33N 53°37' E 005°16'1010.2
2016-Aug-26 07:34N 53°40' E 005°32'1010.2
2016-Aug-26 06:34N 53°42' E 005°49'17 8.6
2016-Aug-26 04:32N 53°36' E 006°16'0 0.0
2016-Aug-26 03:33N 53°36' E 006°16'0 0.0
2016-Aug-26 02:33N 53°36' E 006°16'0 0.0
2016-Aug-26 01:33N 53°36' E 006°16'0 0.0
2016-Aug-26 00:30N 53°36' E 006°16'0 0.0
2016-Aug-25 23:33N 53°36' E 006°16'0 0.0
2016-Aug-25 22:30N 53°36' E 006°16'0 0.1
2016-Aug-25 21:24N 53°36' E 006°16'0 0.0
2016-Aug-25 20:30N 53°36' E 006°16'0 0.0
2016-Aug-25 19:33N 53°36' E 006°16'0 0.0
2016-Aug-25 18:33N 53°36' E 006°16'0 0.0
2016-Aug-25 17:33N 53°36' E 006°16'0 0.0
2016-Aug-25 16:30N 53°36' E 006°16'0 0.1
2016-Aug-25 15:30N 53°36' E 006°16'7 7.3
2016-Aug-25 14:33N 53°37' E 006°28'1111.0
2016-Aug-25 13:33N 53°32' E 006°44'1110.7
2016-Aug-25 12:33N 53°24' E 006°57'8 8.0
2016-Aug-25 11:33N 53°20' E 007°08'2 2.1
2016-Aug-25 10:33N 53°20' E 007°12'0 0.1
2016-Aug-25 09:29N 53°20' E 007°12'0 0.0
2016-Aug-25 08:32N 53°20' E 007°12'0 0.0
2016-Aug-25 07:32N 53°20' E 007°12'0 0.0
2016-Aug-25 06:32N 53°20' E 007°12'0 0.0
2016-Aug-25 04:29N 53°20' E 007°12'0 0.0
2016-Aug-25 03:29N 53°20' E 007°12'0 0.0
2016-Aug-25 02:32N 53°20' E 007°12'0 0.0
2016-Aug-25 01:32N 53°20' E 007°12'0 0.0
2016-Aug-25 00:32N 53°20' E 007°12'0 0.0
2016-Aug-24 23:29N 53°20' E 007°12'0 0.0
2016-Aug-24 22:32N 53°20' E 007°12'0 0.0
2016-Aug-24 21:32N 53°20' E 007°12'0 0.0
2016-Aug-24 20:32N 53°20' E 007°12'0 0.0
2016-Aug-24 19:32N 53°20' E 007°12'0 0.0
2016-Aug-24 18:32N 53°20' E 007°12'0 0.0
2016-Aug-24 17:32N 53°20' E 007°12'0 0.0
2016-Aug-24 16:17N 53°20' E 007°12'0 0.0
2016-Aug-24 15:29N 53°20' E 007°12'0 0.0
2016-Aug-24 14:32N 53°20' E 007°12'0 0.0
2016-Aug-24 13:29N 53°20' E 007°12'0 0.0
2016-Aug-24 12:26N 53°20' E 007°12'0 0.0
2016-Aug-24 11:32N 53°20' E 007°12'0 0.0
2016-Aug-24 10:29N 53°20' E 007°12'0 0.0
2016-Aug-24 09:32N 53°20' E 007°12'0 0.0
2016-Aug-24 08:32N 53°20' E 007°12'0 0.0
2016-Aug-24 07:32N 53°20' E 007°12'0 0.0
2016-Aug-24 06:32N 53°20' E 007°12'0 0.0
2016-Aug-24 04:32N 53°20' E 007°12'0 0.0
2016-Aug-24 03:29N 53°20' E 007°12'0 0.0
2016-Aug-24 02:32N 53°20' E 007°12'0 0.0
2016-Aug-24 01:32N 53°20' E 007°12'0 0.0
2016-Aug-24 00:32N 53°20' E 007°12'0 0.0
2016-Aug-23 23:29N 53°20' E 007°12'0 0.0
2016-Aug-23 22:32N 53°20' E 007°12'0 0.0
2016-Aug-23 21:29N 53°20' E 007°12'0 0.0
2016-Aug-23 20:29N 53°20' E 007°12'0 0.0
2016-Aug-23 19:29N 53°20' E 007°12'0 0.0
2016-Aug-23 18:29N 53°20' E 007°12'0 0.0
2016-Aug-23 17:29N 53°20' E 007°12'0 0.0
2016-Aug-23 16:29N 53°20' E 007°12'0 0.0
2016-Aug-23 15:29N 53°20' E 007°12'0 0.0
2016-Aug-23 14:29N 53°20' E 007°12'0 0.3
2016-Aug-23 13:33N 53°20' E 007°12'3 2.9
2016-Aug-23 12:33N 53°20' E 007°07'1010.3
2016-Aug-23 11:33N 53°27' E 006°54'1514.7
2016-Aug-23 10:33N 53°36' E 006°35'1111.3
2016-Aug-23 09:33N 53°37' E 006°16'1 1.0
2016-Aug-23 08:33N 53°36' E 006°16'9 9.3
2016-Aug-23 07:33N 53°38' E 006°01'9 9.2
2016-Aug-23 06:33N 53°37' E 005°46'8 8.1
2016-Aug-23 05:33N 53°35' E 005°32'8 8.5
2016-Aug-23 04:33N 53°32' E 005°19'9 8.8
2016-Aug-23 03:33N 53°29' E 005°05'9 9.1
2016-Aug-23 02:31N 53°25' E 004°50'1410.2
2016-Aug-23 01:07N 53°14' E 004°35'1011.0
2016-Aug-23 00:13N 53°05' E 004°27'710.9
2016-Aug-22 23:33N 52°59' E 004°22'1110.6
2016-Aug-22 22:33N 52°50' E 004°12'1110.9
2016-Aug-22 21:33N 52°42' E 004°00'1111.4
2016-Aug-22 20:33N 52°34' E 003°48'1212.3
2016-Aug-22 19:34N 52°25' E 003°34'1212.2
2016-Aug-22 18:33N 52°16' E 003°20'1312.9
2016-Aug-22 17:33N 52°06' E 003°06'1413.8
2016-Aug-22 16:33N 51°55' E 002°52'1414.1
2016-Aug-22 15:32N 51°44' E 002°37'1313.7
2016-Aug-22 14:33N 51°34' E 002°23'1413.7
2016-Aug-22 13:34N 51°23' E 002°11'1312.7
2016-Aug-22 12:33N 51°12' E 001°59'1110.8
2016-Aug-22 11:33N 51°05' E 001°46'10 9.5
2016-Aug-22 10:33N 50°58' E 001°36'9 8.6
2016-Aug-22 09:33N 50°51' E 001°27'10 9.2
2016-Aug-22 08:30N 50°43' E 001°20'9 9.5
2016-Aug-22 07:33N 50°37' E 001°08'10 9.7
2016-Aug-22 06:31N 50°32' E 000°55'1010.0
2016-Aug-22 05:33N 50°29' E 000°41'10 9.8
2016-Aug-22 04:31N 50°26' E 000°26'9 9.8
2016-Aug-22 03:32N 50°23' E 000°11'1010.1
2016-Aug-22 02:33N 50°21' W 000°04'1110.7
2016-Aug-22 01:33N 50°18' W 000°20'1311.9
2016-Aug-22 00:30N 50°14' W 000°38'1713.6
2016-Aug-21 23:13N 50°08' W 001°04'1214.6
2016-Aug-21 22:26N 50°05' W 001°21'1415.0
2016-Aug-21 21:29N 50°01' W 001°42'3313.9
2016-Aug-21 19:08N 49°52' W 002°31'911.7
2016-Aug-21 18:23N 49°49' W 002°44'1211.0
2016-Aug-21 17:17N 49°43' W 003°00'810.4
2016-Aug-21 16:31N 49°40' W 003°11'1210.0
2016-Aug-21 15:19N 49°34' W 003°28'10 9.4
2016-Aug-21 14:14N 49°29' W 003°41'57 9.9
2016-Aug-21 08:29N 48°60' W 004°56'1212.1
2016-Aug-21 07:31N 48°54' W 005°12'1212.3
2016-Aug-21 06:33N 48°48' W 005°27'  

Dump ship's entire track history